Time;durP1;ratioP1;P1;durP2;ratioP2;P2;SDS_P1;SDS_P2;PMS_P1;PMS_P2;Temp;Humidity;BMP_temperature;BMP_pressure;BME280_temperature;BME280_humidity;BME280_pressure;Samples;Min_cycle;Max_cycle;Signal;HPM_P1;HPM_P2
2022/08/08 00:02:39;;;;;;;7.65;5.72;;;;;;;;;;5072267;28;20120;-64
2022/08/08 00:05:14;;;;;;;7.22;5.97;;;;;;;;;;5072258;28;20055;-64
2022/08/08 00:07:58;;;;;;;7.50;6.03;;;;;;;;;;5072329;28;20430;-64
2022/08/08 00:10:44;;;;;;;7.25;5.82;;;;;;;;;;5072121;28;20048;-64
2022/08/08 00:13:25;;;;;;;7.03;6.28;;;;;;;;;;5072265;28;20124;-64
2022/08/08 00:16:16;;;;;;;11.18;6.07;;;;;;;;;;5072322;28;20075;-64
2022/08/08 00:18:44;;;;;;;8.30;6.30;;;;;;;;;;5072102;28;20119;-64
2022/08/08 00:21:17;;;;;;;9.88;6.07;;;;;;;;;;5054435;28;20469;-65
2022/08/08 00:23:58;;;;;;;6.85;5.68;;;;;;;;;;5072114;28;20124;-64
2022/08/08 00:26:30;;;;;;;6.38;5.63;;;;;;;;;;5072127;28;20043;-64
2022/08/08 00:29:02;;;;;;;7.13;5.78;;;;;;;;;;5072378;28;20036;-64
2022/08/08 00:31:37;;;;;;;8.43;5.70;;;;;;;;;;5054118;28;20490;-64
2022/08/08 00:37:30;;;;;;;7.97;6.10;;;;;;;;;;5054080;28;20131;-64
2022/08/08 00:40:24;;;;;;;7.78;5.57;;;;;;;;;;5071921;28;20040;-64
2022/08/08 00:43:31;;;;;;;8.68;5.50;;;;;;;;;;5053999;28;20051;-64
2022/08/08 00:46:20;;;;;;;6.90;5.82;;;;;;;;;;5053894;28;20406;-64
2022/08/08 00:49:03;;;;;;;7.35;5.72;;;;;;;;;;5074698;28;20383;-65
2022/08/08 00:51:52;;;;;;;8.82;5.43;;;;;;;;;;5074199;28;20066;-64
2022/08/08 00:54:23;;;;;;;;;;;;;;;;;;5075747;28;20405;-65
2022/08/08 00:57:13;;;;;;;6.28;5.47;;;;;;;;;;5075520;28;19958;-64
2022/08/08 01:00:00;;;;;;;9.52;5.85;;;;;;;;;;5057339;28;20052;-64
2022/08/08 01:02:50;;;;;;;7.47;6.25;;;;;;;;;;5057369;28;20521;-65
2022/08/08 01:06:07;;;;;;;8.48;5.75;;;;;;;;;;5074145;28;20037;-64
2022/08/08 01:08:43;;;;;;;9.18;6.43;;;;;;;;;;5073880;28;20049;-64
2022/08/08 01:11:37;;;;;;;9.27;8.15;;;;;;;;;;5056926;28;20068;-64
2022/08/08 01:14:25;;;;;;;6.90;5.60;;;;;;;;;;5073795;28;20135;-64
2022/08/08 01:17:19;;;;;;;7.43;5.90;;;;;;;;;;5075209;28;20041;-64
2022/08/08 01:20:13;;;;;;;6.53;5.90;;;;;;;;;;5074872;28;20055;-64
2022/08/08 01:23:21;;;;;;;7.57;6.43;;;;;;;;;;5056962;28;20485;-64
2022/08/08 01:26:27;;;;;;;9.05;5.60;;;;;;;;;;5016063;28;20041;-64
2022/08/08 01:29:13;;;;;;;9.90;5.70;;;;;;;;;;5032662;28;20166;-64
2022/08/08 01:31:42;;;;;;;7.88;5.85;;;;;;;;;;5052495;28;20045;-64
2022/08/08 01:34:36;;;;;;;6.68;5.72;;;;;;;;;;5074887;28;20502;-64
2022/08/08 01:37:07;;;;;;;10.55;6.55;;;;;;;;;;5056694;28;20055;-64
2022/08/08 01:39:58;;;;;;;8.40;6.40;;;;;;;;;;5056780;28;20064;-64
2022/08/08 01:42:45;;;;;;;6.85;5.70;;;;;;;;;;5073514;28;20048;-64
2022/08/08 01:45:18;;;;;;;6.78;5.40;;;;;;;;;;5056557;28;20052;-64
2022/08/08 01:48:08;;;;;;;6.30;5.47;;;;;;;;;;5056590;28;20490;-65
2022/08/08 01:51:15;;;;;;;7.90;5.32;;;;;;;;;;5056413;28;20127;-64
2022/08/08 01:54:12;;;;;;;8.82;5.55;;;;;;;;;;5056286;28;20053;-64
2022/08/08 01:57:09;;;;;;;7.82;5.80;;;;;;;;;;5056386;28;20043;-64
2022/08/08 02:00:08;;;;;;;6.93;5.55;;;;;;;;;;5072596;28;20041;-64
2022/08/08 02:02:50;;;;;;;6.25;5.65;;;;;;;;;;5072823;28;20585;-64
2022/08/08 02:05:24;;;;;;;7.32;5.50;;;;;;;;;;5072979;28;20268;-64
2022/08/08 02:08:01;;;;;;;9.68;6.13;;;;;;;;;;5073972;28;20037;-64
2022/08/08 02:10:41;;;;;;;5.90;5.30;;;;;;;;;;5072778;28;20044;-64
2022/08/08 02:13:17;;;;;;;6.57;5.97;;;;;;;;;;5056146;28;20098;-64
2022/08/08 02:16:14;;;;;;;6.63;5.10;;;;;;;;;;5072672;28;20060;-64
2022/08/08 02:18:51;;;;;;;6.72;5.57;;;;;;;;;;5072672;28;20050;-64
2022/08/08 02:24:30;;;;;;;8.65;6.00;;;;;;;;;;5056181;28;20041;-64
2022/08/08 02:27:03;;;;;;;6.43;5.82;;;;;;;;;;5072471;28;20517;-64
2022/08/08 02:29:51;;;;;;;7.82;5.65;;;;;;;;;;5056172;28;20041;-65
2022/08/08 02:32:25;;;;;;;8.18;5.70;;;;;;;;;;5055629;28;20049;-65
2022/08/08 02:34:53;;;;;;;7.07;5.75;;;;;;;;;;5055752;28;20178;-65
2022/08/08 02:37:50;;;;;;;10.43;6.03;;;;;;;;;;5072068;28;20044;-64
2022/08/08 02:40:26;;;;;;;7.88;5.85;;;;;;;;;;5055516;28;20043;-64
2022/08/08 02:43:13;;;;;;;7.85;5.60;;;;;;;;;;5055317;28;20453;-65
2022/08/08 02:46:02;;;;;;;8.10;5.95;;;;;;;;;;5055532;28;20136;-64
2022/08/08 02:48:53;;;;;;;6.93;6.18;;;;;;;;;;5056084;28;20532;-64
2022/08/08 02:51:21;;;;;;;8.52;5.90;;;;;;;;;;5055393;28;20487;-64
2022/08/08 02:54:31;;;;;;;8.23;6.38;;;;;;;;;;5071716;28;20140;-65
2022/08/08 02:57:01;;;;;;;6.97;5.90;;;;;;;;;;5055191;28;20037;-65
2022/08/08 02:59:31;;;;;;;8.13;5.93;;;;;;;;;;5071713;28;20052;-65
2022/08/08 03:02:25;;;;;;;7.80;6.00;;;;;;;;;;5073075;28;20044;-64
2022/08/08 03:05:14;;;;;;;10.23;6.10;;;;;;;;;;5073198;28;20445;-65
2022/08/08 03:07:54;;;;;;;9.38;6.55;;;;;;;;;;5072766;28;20068;-65
2022/08/08 03:10:28;;;;;;;;;;;;;;;;;;5054577;28;20703;-65
2022/08/08 03:13:08;;;;;;;9.38;6.30;;;;;;;;;;5071592;28;19924;-65
2022/08/08 03:16:18;;;;;;;9.57;6.22;;;;;;;;;;5071622;28;20048;-64
2022/08/08 03:19:23;;;;;;;9.88;6.45;;;;;;;;;;5054763;28;20180;-63
2022/08/08 03:21:51;;;;;;;8.02;6.45;;;;;;;;;;5054802;28;20510;-63
2022/08/08 03:24:27;;;;;;;9.63;6.70;;;;;;;;;;5054485;28;20078;-63
2022/08/08 03:27:03;;;;;;;11.20;6.50;;;;;;;;;;5054776;28;20440;-64
2022/08/08 03:29:38;;;;;;;13.23;6.95;;;;;;;;;;5054860;28;20485;-63
2022/08/08 03:35:14;;;;;;;12.55;6.53;;;;;;;;;;5054576;28;20044;-64
2022/08/08 03:37:42;;;;;;;10.60;6.45;;;;;;;;;;5072620;28;20075;-64
2022/08/08 03:40:30;;;;;;;8.77;6.72;;;;;;;;;;5054528;28;20510;-64
2022/08/08 03:43:04;;;;;;;8.23;6.70;;;;;;;;;;5054479;28;20048;-64
2022/08/08 03:45:51;;;;;;;9.90;6.90;;;;;;;;;;5071240;28;20051;-64
2022/08/08 03:48:36;;;;;;;9.00;6.55;;;;;;;;;;5072014;28;20136;-66
2022/08/08 03:51:28;;;;;;;9.27;7.50;;;;;;;;;;5092503;28;20066;-65
2022/08/08 03:54:16;;;;;;;9.35;6.90;;;;;;;;;;5060775;28;20058;-64
2022/08/08 03:57:09;;;;;;;10.82;7.00;;;;;;;;;;5074405;28;20044;-65
2022/08/08 03:59:57;;;;;;;9.48;7.10;;;;;;;;;;5074437;28;20046;-65
2022/08/08 04:02:39;;;;;;;9.23;6.97;;;;;;;;;;5092406;28;20048;-64
2022/08/08 04:05:20;;;;;;;11.02;6.90;;;;;;;;;;5074445;28;20044;-64
2022/08/08 04:07:56;;;;;;;9.43;7.03;;;;;;;;;;5074269;28;20040;-64
2022/08/08 04:10:26;;;;;;;11.43;6.60;;;;;;;;;;5074275;28;20093;-64
2022/08/08 04:13:01;;;;;;;10.43;7.10;;;;;;;;;;5074361;28;20437;-64
2022/08/08 04:15:49;;;;;;;9.50;7.25;;;;;;;;;;5074385;28;20490;-64
2022/08/08 04:18:35;;;;;;;11.50;6.95;;;;;;;;;;5074379;28;20131;-64
2022/08/08 04:21:18;;;;;;;9.13;6.85;;;;;;;;;;5074811;28;20106;-64
2022/08/08 04:23:52;;;;;;;9.70;6.47;;;;;;;;;;5078054;28;20048;-64
2022/08/08 04:26:40;;;;;;;10.77;7.15;;;;;;;;;;5077817;28;20048;-64
2022/08/08 04:29:25;;;;;;;10.30;7.45;;;;;;;;;;5077276;28;20102;-65
2022/08/08 04:31:54;;;;;;;9.45;7.13;;;;;;;;;;5077977;28;20510;-64
2022/08/08 04:34:27;;;;;;;10.65;8.07;;;;;;;;;;5062187;28;20044;-64
2022/08/08 04:37:14;;;;;;;11.50;6.88;;;;;;;;;;5077960;28;20379;-64
2022/08/08 04:39:42;;;;;;;11.32;7.22;;;;;;;;;;5077591;28;20039;-65
2022/08/08 04:42:33;;;;;;;12.25;7.20;;;;;;;;;;5077880;28;20047;-64
2022/08/08 04:45:04;;;;;;;8.75;6.63;;;;;;;;;;5077808;28;20101;-64
2022/08/08 04:47:32;;;;;;;10.30;7.10;;;;;;;;;;5095866;28;20033;-65
2022/08/08 04:50:10;;;;;;;9.20;6.90;;;;;;;;;;5077760;28;20048;-64
2022/08/08 04:52:53;;;;;;;8.85;6.65;;;;;;;;;;5077860;28;20044;-65
2022/08/08 04:55:28;;;;;;;10.52;7.07;;;;;;;;;;5077562;28;20549;-64
2022/08/08 04:58:17;;;;;;;11.82;7.40;;;;;;;;;;5077591;28;20044;-65
2022/08/08 05:00:46;;;;;;;8.75;7.18;;;;;;;;;;5071313;28;20036;-65
2022/08/08 05:03:16;;;;;;;14.68;7.22;;;;;;;;;;5076961;28;20048;-64
2022/08/08 05:06:05;;;;;;;11.73;6.70;;;;;;;;;;5057418;28;20440;-64
2022/08/08 05:08:46;;;;;;;8.55;6.60;;;;;;;;;;5064442;28;20040;-65
2022/08/08 05:11:22;;;;;;;8.27;7.05;;;;;;;;;;5066474;28;20047;-64
2022/08/08 05:13:58;;;;;;;8.32;6.65;;;;;;;;;;5057069;28;20048;-64
2022/08/08 05:16:31;;;;;;;9.10;6.78;;;;;;;;;;5057302;28;20135;-65
2022/08/08 05:19:21;;;;;;;8.43;6.30;;;;;;;;;;5057119;28;20062;-64
2022/08/08 05:22:09;;;;;;;9.32;6.25;;;;;;;;;;5056976;28;20068;-65
2022/08/08 05:24:41;;;;;;;7.47;6.13;;;;;;;;;;5057860;28;20039;-65
2022/08/08 05:27:15;;;;;;;11.33;6.10;;;;;;;;;;5073820;28;20137;-65
2022/08/08 05:29:44;;;;;;;7.38;5.40;;;;;;;;;;5057071;28;20609;-65
2022/08/08 05:32:20;;;;;;;7.88;5.90;;;;;;;;;;5073543;28;20047;-65
2022/08/08 05:34:59;;;;;;;8.65;5.95;;;;;;;;;;5057580;28;20410;-65
2022/08/08 05:37:36;;;;;;;9.55;5.85;;;;;;;;;;5056902;28;20068;-65
2022/08/08 05:40:23;;;;;;;10.63;5.95;;;;;;;;;;5056691;28;20040;-65
2022/08/08 05:43:07;;;;;;;9.20;5.72;;;;;;;;;;5056738;28;20319;-65
2022/08/08 05:46:02;;;;;;;8.25;6.00;;;;;;;;;;5056816;28;20082;-65
2022/08/08 05:48:38;;;;;;;8.60;5.90;;;;;;;;;;5056703;28;20048;-65
2022/08/08 05:51:11;;;;;;;8.20;6.03;;;;;;;;;;5073148;28;20598;-65
2022/08/08 05:53:45;;;;;;;10.33;6.30;;;;;;;;;;5073108;28;20048;-65
2022/08/08 05:56:39;;;;;;;9.10;5.97;;;;;;;;;;5056407;28;20281;-65
2022/08/08 05:59:17;;;;;;;7.68;5.90;;;;;;;;;;5056146;28;20068;-65
2022/08/08 06:03:09;;;;;;;11.07;5.90;;;;;;;;;;5073303;28;20052;-65
2022/08/08 06:04:58;;;;;;;10.52;5.85;;;;;;;;;;5056225;28;20182;-65
2022/08/08 06:07:26;;;;;;;7.28;5.70;;;;;;;;;;5073104;28;20040;-65
2022/08/08 06:09:54;;;;;;;6.40;5.80;;;;;;;;;;5056567;28;20045;-65
2022/08/08 06:12:33;;;;;;;7.00;5.30;;;;;;;;;;5056100;28;20040;-66
2022/08/08 06:15:03;;;;;;;10.82;6.50;;;;;;;;;;5072548;28;20056;-65
2022/08/08 06:17:37;;;;;;;6.25;5.50;;;;;;;;;;5055760;28;20131;-65
2022/08/08 06:20:24;;;;;;;10.25;6.05;;;;;;;;;;5073876;28;20106;-65
2022/08/08 06:22:54;;;;;;;6.28;5.28;;;;;;;;;;5072528;28;20041;-65
2022/08/08 06:25:28;;;;;;;7.72;5.45;;;;;;;;;;5072441;28;20044;-65
2022/08/08 06:28:22;;;;;;;8.40;5.70;;;;;;;;;;5072665;28;20041;-65
2022/08/08 06:30:58;;;;;;;8.60;5.07;;;;;;;;;;5055479;28;20498;-65
2022/08/08 06:33:30;;;;;;;8.40;5.60;;;;;;;;;;5055759;28;20139;-64
2022/08/08 06:36:28;;;;;;;6.80;5.45;;;;;;;;;;5055904;28;20403;-65
2022/08/08 06:38:58;;;;;;;8.80;5.43;;;;;;;;;;5055617;28;20123;-64
2022/08/08 06:41:31;;;;;;;7.47;5.22;;;;;;;;;;5055527;28;20052;-65
2022/08/08 06:44:02;;;;;;;7.00;5.27;;;;;;;;;;5055415;28;20132;-64
2022/08/08 06:46:34;;;;;;;8.60;5.10;;;;;;;;;;5055410;28;20693;-65
2022/08/08 06:49:03;;;;;;;11.68;7.75;;;;;;;;;;5055219;28;20453;-65
2022/08/08 06:51:32;;;;;;;7.25;5.53;;;;;;;;;;5055286;28;20045;-65
2022/08/08 06:54:22;;;;;;;6.93;5.10;;;;;;;;;;5055049;28;20055;-65
2022/08/08 06:56:51;;;;;;;8.13;5.25;;;;;;;;;;5055419;28;20086;-65
2022/08/08 06:59:20;;;;;;;8.07;5.75;;;;;;;;;;5055331;28;20135;-65
2022/08/08 07:01:56;;;;;;;6.80;5.25;;;;;;;;;;5071853;28;20044;-65
2022/08/08 07:04:59;;;;;;;11.35;5.63;;;;;;;;;;5055097;28;20040;-65
2022/08/08 07:07:38;;;;;;;12.02;7.38;;;;;;;;;;5055014;28;20270;-65
2022/08/08 07:10:11;;;;;;;5.90;4.95;;;;;;;;;;5071653;28;20048;-64
2022/08/08 07:12:46;;;;;;;8.63;5.30;;;;;;;;;;5055856;28;20044;-65
2022/08/08 07:15:27;;;;;;;6.55;4.80;;;;;;;;;;5072823;28;20106;-65
2022/08/08 07:18:19;;;;;;;6.43;4.70;;;;;;;;;;5071414;28;20039;-64
2022/08/08 07:21:08;;;;;;;6.45;4.50;;;;;;;;;;5054605;28;20409;-65
2022/08/08 07:24:22;;;;;;;7.22;5.13;;;;;;;;;;5054571;28;20064;-64
2022/08/08 07:26:59;;;;;;;5.60;5.00;;;;;;;;;;5027758;28;20052;-66
2022/08/08 07:29:36;;;;;;;6.28;4.97;;;;;;;;;;5054422;28;20037;-65
2022/08/08 07:32:26;;;;;;;9.77;5.50;;;;;;;;;;5054383;28;20498;-65
2022/08/08 07:34:57;;;;;;;8.38;5.35;;;;;;;;;;5054499;28;20051;-65
2022/08/08 07:37:31;;;;;;;6.78;4.90;;;;;;;;;;5055352;28;20048;-65
2022/08/08 07:40:25;;;;;;;14.23;5.03;;;;;;;;;;5041684;28;20036;-65
2022/08/08 07:43:01;;;;;;;7.75;4.60;;;;;;;;;;5054258;28;20067;-65
2022/08/08 07:45:35;;;;;;;6.93;4.97;;;;;;;;;;5055493;28;20052;-65
2022/08/08 07:48:23;;;;;;;7.05;4.70;;;;;;;;;;5071098;28;20041;-65
2022/08/08 07:50:59;;;;;;;5.13;4.55;;;;;;;;;;5054283;28;20090;-65
2022/08/08 07:53:35;;;;;;;5.25;4.68;;;;;;;;;;5054009;28;20052;-65
2022/08/08 07:56:24;;;;;;;6.00;4.10;;;;;;;;;;5074699;28;20044;-65
2022/08/08 07:59:07;;;;;;;7.88;4.55;;;;;;;;;;5060901;28;20053;-65
2022/08/08 08:01:38;;;;;;;6.53;4.32;;;;;;;;;;5060822;28;20044;-65
2022/08/08 08:04:32;;;;;;;92.70;8.93;;;;;;;;;;5061019;28;20593;-65
2022/08/08 08:07:07;;;;;;;7.00;4.90;;;;;;;;;;5061125;28;20050;-65
2022/08/08 08:09:40;;;;;;;4.82;4.40;;;;;;;;;;5060817;28;20040;-66
2022/08/08 08:12:13;;;;;;;6.78;4.75;;;;;;;;;;5060783;28;20410;-65
2022/08/08 08:15:01;;;;;;;9.80;7.15;;;;;;;;;;5060717;28;20124;-65
2022/08/08 08:17:35;;;;;;;6.65;4.68;;;;;;;;;;5060744;28;20080;-65
2022/08/08 08:20:20;;;;;;;6.30;4.55;;;;;;;;;;5061095;28;20041;-65
2022/08/08 08:22:59;;;;;;;8.85;4.95;;;;;;;;;;5060522;28;20044;-65
2022/08/08 08:25:27;;;;;;;5.72;4.75;;;;;;;;;;5060804;28;20066;-65
2022/08/08 08:28:15;;;;;;;8.63;7.13;;;;;;;;;;5060614;28;20145;-65
2022/08/08 08:30:53;;;;;;;8.63;4.70;;;;;;;;;;5060912;28;20048;-64
2022/08/08 08:33:25;;;;;;;6.18;4.47;;;;;;;;;;5061262;28;20044;-64
2022/08/08 08:35:52;;;;;;;5.28;4.40;;;;;;;;;;5060635;28;20045;-65
2022/08/08 08:38:42;;;;;;;9.73;6.15;;;;;;;;;;5060792;28;20074;-65
2022/08/08 08:41:20;;;;;;;5.65;4.68;;;;;;;;;;5077404;28;20059;-65
2022/08/08 08:43:53;;;;;;;4.20;3.80;;;;;;;;;;5060748;28;20410;-64
2022/08/08 08:46:42;;;;;;;8.45;4.40;;;;;;;;;;5060569;28;20060;-64
2022/08/08 08:49:19;;;;;;;5.30;4.25;;;;;;;;;;5060610;28;20131;-64
2022/08/08 08:51:50;;;;;;;10.32;6.72;;;;;;;;;;5060495;28;20136;-64
2022/08/08 08:54:23;;;;;;;9.40;4.80;;;;;;;;;;5044366;28;20071;-64
2022/08/08 08:56:54;;;;;;;7.45;5.63;;;;;;;;;;5060414;28;20052;-64
2022/08/08 08:59:22;;;;;;;7.22;4.45;;;;;;;;;;5060289;28;20051;-64
2022/08/08 09:02:19;;;;;;;7.18;4.78;;;;;;;;;;5059908;28;20095;-64
2022/08/08 09:04:55;;;;;;;6.57;4.32;;;;;;;;;;5060305;28;20044;-63
2022/08/08 09:07:26;;;;;;;10.32;7.57;;;;;;;;;;5059149;28;20139;-64
2022/08/08 09:10:15;;;;;;;12.68;4.68;;;;;;;;;;5056916;28;20047;-64
2022/08/08 09:12:58;;;;;;;5.50;4.45;;;;;;;;;;5058946;28;20525;-65
2022/08/08 09:15:27;;;;;;;7.28;5.00;;;;;;;;;;5073909;28;20072;-65
2022/08/08 09:18:09;;;;;;;9.73;4.88;;;;;;;;;;5057014;28;20525;-65
2022/08/08 09:20:41;;;;;;;7.55;4.63;;;;;;;;;;5057924;28;20140;-65
2022/08/08 09:23:32;;;;;;;7.05;3.95;;;;;;;;;;5057023;28;20040;-65
2022/08/08 09:26:29;;;;;;;6.63;4.90;;;;;;;;;;5058953;28;20044;-65
2022/08/08 09:29:13;;;;;;;8.25;4.70;;;;;;;;;;5057126;28;20060;-65
2022/08/08 09:31:53;;;;;;;5.53;4.18;;;;;;;;;;5057513;28;20072;-65
2022/08/08 09:34:34;;;;;;;6.95;4.32;;;;;;;;;;5057028;28;20563;-65
2022/08/08 09:37:10;;;;;;;9.35;5.15;;;;;;;;;;5057950;28;20087;-64
2022/08/08 09:40:04;;;;;;;9.35;5.32;;;;;;;;;;5060354;28;20047;-64
2022/08/08 09:42:39;;;;;;;5.70;4.10;;;;;;;;;;5058113;28;20075;-65
2022/08/08 09:45:22;;;;;;;5.35;4.30;;;;;;;;;;5074711;28;20119;-65
2022/08/08 09:48:10;;;;;;;8.07;4.32;;;;;;;;;;5060054;28;20044;-65
2022/08/08 09:50:52;;;;;;;7.18;4.85;;;;;;;;;;5074700;28;20119;-65
2022/08/08 09:53:23;;;;;;;6.03;4.38;;;;;;;;;;5074534;28;20048;-65
2022/08/08 09:56:12;;;;;;;9.55;5.10;;;;;;;;;;5074524;28;20056;-65
2022/08/08 09:59:02;;;;;;;6.72;4.22;;;;;;;;;;5074426;28;20036;-64
2022/08/08 10:01:51;;;;;;;6.05;4.20;;;;;;;;;;5074088;28;20486;-64
2022/08/08 10:04:29;;;;;;;4.95;4.13;;;;;;;;;;5074133;28;20037;-64
2022/08/08 10:07:15;;;;;;;9.30;4.00;;;;;;;;;;5074176;28;20048;-64
2022/08/08 10:09:49;;;;;;;6.25;4.72;;;;;;;;;;5074177;28;20047;-64
2022/08/08 10:12:33;;;;;;;4.85;4.25;;;;;;;;;;5072874;28;20139;-64
2022/08/08 10:15:20;;;;;;;13.80;7.35;;;;;;;;;;5074189;28;20202;-64
2022/08/08 10:17:51;;;;;;;6.30;3.90;;;;;;;;;;5074068;28;20052;-64
2022/08/08 10:20:41;;;;;;;4.53;3.92;;;;;;;;;;5073669;28;20045;-64
2022/08/08 10:23:48;;;;;;;6.00;3.97;;;;;;;;;;5073880;28;20060;-64
2022/08/08 10:26:30;;;;;;;5.63;3.53;;;;;;;;;;5070605;28;20059;-65
2022/08/08 10:29:22;;;;;;;7.68;5.60;;;;;;;;;;5055725;28;20124;-64
2022/08/08 10:34:58;;;;;;;8.02;3.97;;;;;;;;;;5073669;28;20055;-64
2022/08/08 10:37:31;;;;;;;6.57;3.50;;;;;;;;;;5073292;28;20393;-65
2022/08/08 10:40:11;;;;;;;4.85;3.70;;;;;;;;;;5073312;28;20048;-64
2022/08/08 10:42:44;;;;;;;5.15;4.22;;;;;;;;;;5073701;28;20068;-64
2022/08/08 10:45:12;;;;;;;8.07;4.65;;;;;;;;;;5073259;28;20036;-64
2022/08/08 10:47:43;;;;;;;6.38;4.05;;;;;;;;;;5073430;28;20487;-64
2022/08/08 10:50:22;;;;;;;6.32;3.75;;;;;;;;;;5073333;28;20490;-64
2022/08/08 10:52:50;;;;;;;5.28;3.60;;;;;;;;;;5055644;28;20554;-64
2022/08/08 10:55:18;;;;;;;8.45;4.10;;;;;;;;;;5073240;28;20060;-64
2022/08/08 10:58:07;;;;;;;4.47;3.65;;;;;;;;;;5073229;28;20543;-64
2022/08/08 11:00:40;;;;;;;6.15;3.45;;;;;;;;;;5073002;28;20040;-65
2022/08/08 11:03:20;;;;;;;6.63;4.00;;;;;;;;;;5072987;28;20473;-65
2022/08/08 11:06:07;;;;;;;7.43;3.78;;;;;;;;;;5072923;28;20043;-65
2022/08/08 11:08:40;;;;;;;8.38;3.72;;;;;;;;;;5073056;28;20109;-65
2022/08/08 11:11:19;;;;;;;5.28;3.50;;;;;;;;;;5072840;28;20479;-64
2022/08/08 11:14:08;;;;;;;7.43;3.90;;;;;;;;;;5072955;28;20090;-65
2022/08/08 11:16:44;;;;;;;8.00;4.05;;;;;;;;;;5072964;28;20070;-65
2022/08/08 11:22:13;;;;;;;3.92;3.53;;;;;;;;;;5073216;28;20040;-65
2022/08/08 11:24:42;;;;;;;5.05;3.70;;;;;;;;;;5072790;28;20075;-65
2022/08/08 11:27:12;;;;;;;6.90;3.72;;;;;;;;;;5072685;28;20478;-65
2022/08/08 11:29:50;;;;;;;5.72;3.72;;;;;;;;;;5072928;28;20110;-65
2022/08/08 11:32:39;;;;;;;4.18;3.22;;;;;;;;;;5072348;28;20044;-65
2022/08/08 11:35:08;;;;;;;4.38;3.50;;;;;;;;;;5072626;28;20663;-65
2022/08/08 11:37:56;;;;;;;7.18;4.00;;;;;;;;;;5072749;28;20033;-65
2022/08/08 11:40:45;;;;;;;5.43;3.67;;;;;;;;;;5058093;28;20452;-65
2022/08/08 11:43:19;;;;;;;9.73;3.80;;;;;;;;;;5072538;28;20044;-65
2022/08/08 11:45:50;;;;;;;7.32;3.47;;;;;;;;;;5072625;28;20047;-66
2022/08/08 11:48:38;;;;;;;7.28;3.58;;;;;;;;;;5072471;28;20048;-66
2022/08/08 11:51:10;;;;;;;5.72;4.55;;;;;;;;;;5072482;28;20485;-64
2022/08/08 11:53:58;;;;;;;7.50;3.47;;;;;;;;;;5057644;28;20058;-65
2022/08/08 11:56:33;;;;;;;6.72;3.75;;;;;;;;;;5072617;28;20040;-65
2022/08/08 11:59:11;;;;;;;13.80;4.13;;;;;;;;;;5072429;28;20044;-65
2022/08/08 12:01:39;;;;;;;6.53;3.85;;;;;;;;;;5072329;28;20105;-65
2022/08/08 12:04:08;;;;;;;4.13;3.25;;;;;;;;;;5072656;28;20121;-65
2022/08/08 12:06:36;;;;;;;6.82;3.38;;;;;;;;;;5054340;28;20098;-66
2022/08/08 12:09:06;;;;;;;4.50;3.00;;;;;;;;;;5072369;28;20064;-64
2022/08/08 12:11:43;;;;;;;10.73;3.53;;;;;;;;;;5072423;28;20044;-64
2022/08/08 12:14:22;;;;;;;6.20;3.35;;;;;;;;;;5072317;28;20458;-64
2022/08/08 12:16:56;;;;;;;10.80;3.83;;;;;;;;;;5072519;28;20361;-65
2022/08/08 12:19:27;;;;;;;5.88;3.47;;;;;;;;;;5072201;28;20033;-65
2022/08/08 12:22:14;;;;;;;8.90;3.15;;;;;;;;;;5072323;28;20048;-65
2022/08/08 12:25:01;;;;;;;4.93;3.05;;;;;;;;;;5072128;28;20436;-65
2022/08/08 12:27:37;;;;;;;4.95;3.03;;;;;;;;;;5054381;28;20037;-65
2022/08/08 12:30:14;;;;;;;6.05;3.28;;;;;;;;;;5072303;28;20076;-64
2022/08/08 12:32:48;;;;;;;6.85;3.40;;;;;;;;;;5072167;28;20040;-65
2022/08/08 12:35:21;;;;;;;6.28;3.08;;;;;;;;;;5072084;28;20051;-65
2022/08/08 12:38:02;;;;;;;5.53;3.28;;;;;;;;;;5071973;28;20032;-65
2022/08/08 12:40:37;;;;;;;6.28;3.65;;;;;;;;;;5071992;28;20041;-65
2022/08/08 12:43:30;;;;;;;4.78;3.15;;;;;;;;;;5074604;28;20494;-64
2022/08/08 12:46:28;;;;;;;5.85;2.92;;;;;;;;;;5075881;28;20111;-65
2022/08/08 12:48:56;;;;;;;6.00;2.70;;;;;;;;;;5057757;28;20456;-64
2022/08/08 12:51:49;;;;;;;5.22;3.05;;;;;;;;;;5075470;28;20053;-66
2022/08/08 12:54:31;;;;;;;4.10;2.42;;;;;;;;;;5075751;28;20556;-65
2022/08/08 12:57:22;;;;;;;7.10;3.50;;;;;;;;;;5075434;28;20090;-65
2022/08/08 12:59:52;;;;;;;5.72;2.90;;;;;;;;;;5075324;28;20040;-65
2022/08/08 13:02:33;;;;;;;6.30;3.28;;;;;;;;;;5059466;28;20152;-65
2022/08/08 13:05:04;;;;;;;7.03;3.30;;;;;;;;;;5057369;28;20409;-66
2022/08/08 13:07:33;;;;;;;6.10;2.78;;;;;;;;;;5075246;28;20107;-65
2022/08/08 13:10:21;;;;;;;5.82;3.03;;;;;;;;;;5084155;28;20062;-65
2022/08/08 13:13:00;;;;;;;6.82;3.55;;;;;;;;;;5090113;28;20066;-65
2022/08/08 13:15:32;;;;;;;6.05;3.22;;;;;;;;;;5083966;28;20047;-66
2022/08/08 13:18:00;;;;;;;6.28;3.00;;;;;;;;;;5062208;28;20032;-66
2022/08/08 13:20:45;;;;;;;10.55;3.28;;;;;;;;;;5076089;28;20097;-67
2022/08/08 13:23:16;;;;;;;6.20;3.70;;;;;;;;;;5075716;28;20097;-65
2022/08/08 13:26:05;;;;;;;5.82;2.97;;;;;;;;;;5092571;28;20036;-65
2022/08/08 13:28:41;;;;;;;5.45;2.78;;;;;;;;;;5092694;28;20497;-65
2022/08/08 13:31:12;;;;;;;8.15;3.70;;;;;;;;;;5094498;28;20101;-65
2022/08/08 13:33:45;;;;;;;6.72;3.20;;;;;;;;;;5075750;28;20477;-66
2022/08/08 13:36:16;;;;;;;5.78;3.08;;;;;;;;;;5074513;28;20033;-66
2022/08/08 13:38:52;;;;;;;5.78;3.00;;;;;;;;;;5073020;28;20041;-66
2022/08/08 13:41:21;;;;;;;7.88;3.50;;;;;;;;;;5090999;28;20070;-67
2022/08/08 13:43:49;;;;;;;7.30;3.35;;;;;;;;;;5094569;28;20055;-66
2022/08/08 13:46:18;;;;;;;8.10;3.13;;;;;;;;;;5094632;28;20040;-66
2022/08/08 13:48:56;;;;;;;4.72;3.15;;;;;;;;;;5094635;28;20109;-66
2022/08/08 13:51:53;;;;;;;6.32;3.20;;;;;;;;;;5094594;28;20165;-66
2022/08/08 13:54:22;;;;;;;4.97;3.35;;;;;;;;;;5093589;28;20060;-64
2022/08/08 13:57:03;;;;;;;7.38;3.80;;;;;;;;;;5094251;28;20048;-66
2022/08/08 13:59:36;;;;;;;6.95;3.28;;;;;;;;;;5076990;28;20044;-66
2022/08/08 14:02:22;;;;;;;10.32;3.38;;;;;;;;;;5076822;28;20040;-66
2022/08/08 14:05:04;;;;;;;6.03;3.38;;;;;;;;;;5091646;28;20048;-65
2022/08/08 14:07:49;;;;;;;6.13;3.25;;;;;;;;;;5076040;28;20070;-66
2022/08/08 14:10:21;;;;;;;4.97;3.13;;;;;;;;;;5076725;28;20040;-66
2022/08/08 14:13:08;;;;;;;6.03;3.20;;;;;;;;;;5078451;28;20109;-66
2022/08/08 14:16:03;;;;;;;7.35;3.08;;;;;;;;;;5094156;28;20036;-66
2022/08/08 14:18:53;;;;;;;6.70;3.10;;;;;;;;;;5093638;28;20064;-65
2022/08/08 14:21:21;;;;;;;6.28;3.50;;;;;;;;;;5093909;28;20063;-65
2022/08/08 14:23:50;;;;;;;9.98;3.85;;;;;;;;;;5093743;28;20040;-65
2022/08/08 14:26:43;;;;;;;6.57;3.70;;;;;;;;;;5093812;28;20036;-65
2022/08/08 14:29:20;;;;;;;6.55;4.00;;;;;;;;;;5087826;28;20093;-65
2022/08/08 14:31:57;;;;;;;7.88;4.10;;;;;;;;;;5091202;28;20563;-66
2022/08/08 14:34:41;;;;;;;6.30;4.40;;;;;;;;;;5086847;28;20429;-65
2022/08/08 14:37:15;;;;;;;6.35;3.95;;;;;;;;;;5093282;28;20109;-65
2022/08/08 14:39:49;;;;;;;7.82;3.50;;;;;;;;;;5075410;28;20375;-66
2022/08/08 14:42:30;;;;;;;6.88;3.63;;;;;;;;;;5093304;28;20537;-66
2022/08/08 14:45:00;;;;;;;6.72;4.15;;;;;;;;;;5075391;28;20040;-65
2022/08/08 14:47:28;;;;;;;6.45;3.63;;;;;;;;;;5093219;28;20047;-65
2022/08/08 14:50:06;;;;;;;4.97;3.60;;;;;;;;;;5093310;28;20047;-65
2022/08/08 14:52:53;;;;;;;7.18;3.47;;;;;;;;;;5093329;28;20149;-66
2022/08/08 14:55:24;;;;;;;6.93;4.38;;;;;;;;;;5093000;28;20063;-66
2022/08/08 14:58:09;;;;;;;4.88;3.13;;;;;;;;;;5093024;28;20118;-66
2022/08/08 15:00:44;;;;;;;7.22;3.58;;;;;;;;;;5093051;28;20374;-65
2022/08/08 15:03:14;;;;;;;7.93;3.58;;;;;;;;;;5092288;28;20062;-66
2022/08/08 15:05:45;;;;;;;10.43;4.05;;;;;;;;;;5091661;28;20480;-66
2022/08/08 15:08:23;;;;;;;7.32;3.72;;;;;;;;;;5092346;28;20060;-66
2022/08/08 15:11:10;;;;;;;6.65;3.45;;;;;;;;;;5079967;28;20084;-65
2022/08/08 15:13:47;;;;;;;5.68;3.03;;;;;;;;;;5092657;28;20040;-65
2022/08/08 15:16:30;;;;;;;9.50;3.60;;;;;;;;;;5092438;28;20048;-66
2022/08/08 15:19:01;;;;;;;4.72;3.13;;;;;;;;;;5092575;28;20126;-66
2022/08/08 15:21:29;;;;;;;7.57;3.42;;;;;;;;;;5092509;28;20398;-66
2022/08/08 15:23:57;;;;;;;7.53;3.67;;;;;;;;;;5092546;28;20139;-66
2022/08/08 15:26:25;;;;;;;3.75;3.08;;;;;;;;;;5074713;28;20047;-66
2022/08/08 15:28:56;;;;;;;5.10;3.40;;;;;;;;;;5092314;28;20062;-66
2022/08/08 15:31:23;;;;;;;6.80;3.78;;;;;;;;;;5092575;28;20047;-66
2022/08/08 15:34:10;;;;;;;7.32;3.17;;;;;;;;;;5073780;28;20032;-65
2022/08/08 15:36:58;;;;;;;10.55;7.63;;;;;;;;;;5071776;28;20064;-65
2022/08/08 15:39:30;;;;;;;7.63;2.80;;;;;;;;;;5092402;28;20044;-65
2022/08/08 15:42:06;;;;;;;4.53;3.40;;;;;;;;;;5092327;28;20102;-65
2022/08/08 15:44:40;;;;;;;7.38;4.32;;;;;;;;;;5092643;28;20051;-66
2022/08/08 15:47:09;;;;;;;9.38;6.85;;;;;;;;;;5092141;28;20042;-65
2022/08/08 15:49:45;;;;;;;4.88;3.40;;;;;;;;;;5092105;28;20047;-66
2022/08/08 15:52:15;;;;;;;7.63;3.42;;;;;;;;;;5092108;28;20060;-64
2022/08/08 15:54:45;;;;;;;5.20;3.30;;;;;;;;;;5074260;28;20127;-65
2022/08/08 15:57:17;;;;;;;7.75;4.75;;;;;;;;;;5077893;28;20127;-66
2022/08/08 15:59:47;;;;;;;11.02;7.22;;;;;;;;;;5092226;28;20385;-65
2022/08/08 16:02:40;;;;;;;14.88;11.20;;;;;;;;;;5090347;28;20051;-66
2022/08/08 16:05:16;;;;;;;9.98;5.97;;;;;;;;;;5087882;28;20080;-64
2022/08/08 16:07:45;;;;;;;7.78;5.85;;;;;;;;;;5078272;28;20062;-65
2022/08/08 16:10:21;;;;;;;11.23;7.63;;;;;;;;;;5086208;28;20040;-65
2022/08/08 16:13:09;;;;;;;7.38;3.88;;;;;;;;;;5080501;28;20040;-65